sensor_id;sensor_type;location;lat;lon;timestamp;P1;durP1;ratioP1;P2;durP2;ratioP2
8086;SDS011;4086;54.412;9.980;2023-04-24T00:00:43;7.70;;;6.90;;
8086;SDS011;4086;54.412;9.980;2023-04-24T00:03:10;7.73;;;7.03;;
8086;SDS011;4086;54.412;9.980;2023-04-24T00:05:37;7.70;;;6.90;;
8086;SDS011;4086;54.412;9.980;2023-04-24T00:08:06;7.17;;;6.57;;
8086;SDS011;4086;54.412;9.980;2023-04-24T00:10:32;7.63;;;6.90;;
8086;SDS011;4086;54.412;9.980;2023-04-24T00:12:59;7.60;;;6.80;;
8086;SDS011;4086;54.412;9.980;2023-04-24T00:15:25;8.17;;;7.37;;
8086;SDS011;4086;54.412;9.980;2023-04-24T00:17:52;6.97;;;6.37;;
8086;SDS011;4086;54.412;9.980;2023-04-24T00:20:18;6.30;;;5.80;;
8086;SDS011;4086;54.412;9.980;2023-04-24T00:22:45;6.57;;;6.07;;
8086;SDS011;4086;54.412;9.980;2023-04-24T00:25:12;7.77;;;6.40;;
8086;SDS011;4086;54.412;9.980;2023-04-24T00:27:39;7.77;;;7.07;;
8086;SDS011;4086;54.412;9.980;2023-04-24T00:30:06;8.57;;;7.87;;
8086;SDS011;4086;54.412;9.980;2023-04-24T00:32:33;7.60;;;6.90;;
8086;SDS011;4086;54.412;9.980;2023-04-24T00:35:00;9.03;;;8.17;;
8086;SDS011;4086;54.412;9.980;2023-04-24T00:37:27;9.03;;;8.23;;
8086;SDS011;4086;54.412;9.980;2023-04-24T00:39:53;8.83;;;8.00;;
8086;SDS011;4086;54.412;9.980;2023-04-24T00:42:21;8.70;;;7.73;;
8086;SDS011;4086;54.412;9.980;2023-04-24T00:44:48;9.00;;;8.10;;
8086;SDS011;4086;54.412;9.980;2023-04-24T00:47:14;8.37;;;7.57;;
8086;SDS011;4086;54.412;9.980;2023-04-24T00:49:41;8.87;;;8.03;;
8086;SDS011;4086;54.412;9.980;2023-04-24T00:52:07;9.40;;;8.60;;
8086;SDS011;4086;54.412;9.980;2023-04-24T00:54:34;9.70;;;8.80;;
8086;SDS011;4086;54.412;9.980;2023-04-24T00:57:00;10.43;;;9.43;;
8086;SDS011;4086;54.412;9.980;2023-04-24T00:59:28;10.40;;;9.43;;
8086;SDS011;4086;54.412;9.980;2023-04-24T01:01:55;10.80;;;9.80;;
8086;SDS011;4086;54.412;9.980;2023-04-24T01:04:21;10.77;;;9.67;;
8086;SDS011;4086;54.412;9.980;2023-04-24T01:06:48;11.03;;;9.97;;
8086;SDS011;4086;54.412;9.980;2023-04-24T01:09:14;10.90;;;9.80;;
8086;SDS011;4086;54.412;9.980;2023-04-24T01:11:41;10.67;;;9.57;;
8086;SDS011;4086;54.412;9.980;2023-04-24T01:14:08;10.90;;;9.87;;
8086;SDS011;4086;54.412;9.980;2023-04-24T01:16:35;12.17;;;10.97;;
8086;SDS011;4086;54.412;9.980;2023-04-24T01:19:03;12.13;;;10.43;;
8086;SDS011;4086;54.412;9.980;2023-04-24T01:21:29;10.90;;;9.87;;
8086;SDS011;4086;54.412;9.980;2023-04-24T01:23:57;11.37;;;10.00;;
8086;SDS011;4086;54.412;9.980;2023-04-24T01:26:24;11.40;;;10.30;;
8086;SDS011;4086;54.412;9.980;2023-04-24T01:28:50;11.43;;;10.33;;
8086;SDS011;4086;54.412;9.980;2023-04-24T01:31:17;13.47;;;11.60;;
8086;SDS011;4086;54.412;9.980;2023-04-24T01:33:43;12.37;;;11.17;;
8086;SDS011;4086;54.412;9.980;2023-04-24T01:36:10;11.77;;;10.60;;
8086;SDS011;4086;54.412;9.980;2023-04-24T01:38:37;12.93;;;11.67;;
8086;SDS011;4086;54.412;9.980;2023-04-24T01:41:05;12.40;;;11.20;;
8086;SDS011;4086;54.412;9.980;2023-04-24T01:43:31;11.90;;;10.70;;
8086;SDS011;4086;54.412;9.980;2023-04-24T01:45:58;12.43;;;11.13;;
8086;SDS011;4086;54.412;9.980;2023-04-24T01:48:24;12.47;;;11.27;;
8086;SDS011;4086;54.412;9.980;2023-04-24T01:50:50;11.77;;;10.47;;
8086;SDS011;4086;54.412;9.980;2023-04-24T01:53:17;12.33;;;11.03;;
8086;SDS011;4086;54.412;9.980;2023-04-24T01:55:43;11.80;;;10.53;;
8086;SDS011;4086;54.412;9.980;2023-04-24T01:58:11;12.60;;;10.63;;
8086;SDS011;4086;54.412;9.980;2023-04-24T02:00:37;10.97;;;9.90;;
8086;SDS011;4086;54.412;9.980;2023-04-24T02:03:04;10.27;;;9.27;;
8086;SDS011;4086;54.412;9.980;2023-04-24T02:05:30;10.17;;;9.07;;
8086;SDS011;4086;54.412;9.980;2023-04-24T02:07:57;10.57;;;9.53;;
8086;SDS011;4086;54.412;9.980;2023-04-24T02:10:23;11.10;;;10.00;;
8086;SDS011;4086;54.412;9.980;2023-04-24T02:12:50;11.80;;;10.60;;
8086;SDS011;4086;54.412;9.980;2023-04-24T02:15:18;12.07;;;9.63;;
8086;SDS011;4086;54.412;9.980;2023-04-24T02:17:44;10.27;;;9.27;;
8086;SDS011;4086;54.412;9.980;2023-04-24T02:20:10;10.37;;;9.33;;
8086;SDS011;4086;54.412;9.980;2023-04-24T02:22:37;13.30;;;9.13;;
8086;SDS011;4086;54.412;9.980;2023-04-24T02:25:03;10.47;;;9.47;;
8086;SDS011;4086;54.412;9.980;2023-04-24T02:27:31;10.43;;;9.43;;
8086;SDS011;4086;54.412;9.980;2023-04-24T02:29:57;10.37;;;9.37;;
8086;SDS011;4086;54.412;9.980;2023-04-24T02:32:25;10.20;;;9.30;;
8086;SDS011;4086;54.412;9.980;2023-04-24T02:34:51;10.73;;;9.67;;
8086;SDS011;4086;54.412;9.980;2023-04-24T02:37:17;10.83;;;9.83;;
8086;SDS011;4086;54.412;9.980;2023-04-24T02:39:44;10.97;;;9.90;;
8086;SDS011;4086;54.412;9.980;2023-04-24T02:42:10;10.73;;;9.63;;
8086;SDS011;4086;54.412;9.980;2023-04-24T02:44:36;10.93;;;9.83;;
8086;SDS011;4086;54.412;9.980;2023-04-24T02:47:03;11.37;;;10.07;;
8086;SDS011;4086;54.412;9.980;2023-04-24T02:49:31;11.47;;;9.70;;
8086;SDS011;4086;54.412;9.980;2023-04-24T02:51:57;12.10;;;10.37;;
8086;SDS011;4086;54.412;9.980;2023-04-24T02:54:23;10.70;;;9.60;;
8086;SDS011;4086;54.412;9.980;2023-04-24T02:56:50;11.10;;;9.90;;
8086;SDS011;4086;54.412;9.980;2023-04-24T02:59:16;11.00;;;9.93;;
8086;SDS011;4086;54.412;9.980;2023-04-24T03:01:42;11.80;;;10.60;;
8086;SDS011;4086;54.412;9.980;2023-04-24T03:04:09;12.00;;;10.80;;
8086;SDS011;4086;54.412;9.980;2023-04-24T03:06:37;11.13;;;10.13;;
8086;SDS011;4086;54.412;9.980;2023-04-24T03:09:04;12.13;;;10.93;;
8086;SDS011;4086;54.412;9.980;2023-04-24T03:11:30;10.70;;;9.70;;
8086;SDS011;4086;54.412;9.980;2023-04-24T03:13:56;10.97;;;9.97;;
8086;SDS011;4086;54.412;9.980;2023-04-24T03:16:23;11.37;;;10.03;;
8086;SDS011;4086;54.412;9.980;2023-04-24T03:18:49;10.43;;;9.43;;
8086;SDS011;4086;54.412;9.980;2023-04-24T03:21:15;11.13;;;10.10;;
8086;SDS011;4086;54.412;9.980;2023-04-24T03:23:43;10.37;;;9.40;;
8086;SDS011;4086;54.412;9.980;2023-04-24T03:26:10;12.00;;;10.80;;
8086;SDS011;4086;54.412;9.980;2023-04-24T03:28:36;11.80;;;9.47;;
8086;SDS011;4086;54.412;9.980;2023-04-24T03:31:02;10.07;;;9.07;;
8086;SDS011;4086;54.412;9.980;2023-04-24T03:33:29;10.90;;;9.80;;
8086;SDS011;4086;54.412;9.980;2023-04-24T03:35:55;11.50;;;10.37;;
8086;SDS011;4086;54.412;9.980;2023-04-24T03:38:22;11.70;;;10.50;;
8086;SDS011;4086;54.412;9.980;2023-04-24T03:40:49;10.67;;;9.67;;
8086;SDS011;4086;54.412;9.980;2023-04-24T03:43:16;11.13;;;9.53;;
8086;SDS011;4086;54.412;9.980;2023-04-24T03:45:42;10.83;;;9.67;;
8086;SDS011;4086;54.412;9.980;2023-04-24T03:48:08;10.77;;;9.77;;
8086;SDS011;4086;54.412;9.980;2023-04-24T03:50:35;9.83;;;8.93;;
8086;SDS011;4086;54.412;9.980;2023-04-24T03:53:01;10.37;;;9.37;;
8086;SDS011;4086;54.412;9.980;2023-04-24T03:55:27;9.97;;;9.07;;
8086;SDS011;4086;54.412;9.980;2023-04-24T03:57:55;10.07;;;9.10;;
8086;SDS011;4086;54.412;9.980;2023-04-24T04:00:21;9.10;;;8.30;;
8086;SDS011;4086;54.412;9.980;2023-04-24T04:02:48;8.57;;;7.70;;
8086;SDS011;4086;54.412;9.980;2023-04-24T04:05:14;9.40;;;8.60;;
8086;SDS011;4086;54.412;9.980;2023-04-24T04:07:41;10.00;;;9.03;;
8086;SDS011;4086;54.412;9.980;2023-04-24T04:10:07;10.27;;;8.23;;
8086;SDS011;4086;54.412;9.980;2023-04-24T04:12:34;9.40;;;8.50;;
8086;SDS011;4086;54.412;9.980;2023-04-24T04:15:02;9.10;;;8.10;;
8086;SDS011;4086;54.412;9.980;2023-04-24T04:17:29;8.63;;;7.83;;
8086;SDS011;4086;54.412;9.980;2023-04-24T04:19:55;8.20;;;7.50;;
8086;SDS011;4086;54.412;9.980;2023-04-24T04:22:22;8.53;;;7.83;;
8086;SDS011;4086;54.412;9.980;2023-04-24T04:24:48;8.20;;;7.50;;
8086;SDS011;4086;54.412;9.980;2023-04-24T04:27:16;7.43;;;6.83;;
8086;SDS011;4086;54.412;9.980;2023-04-24T04:29:43;7.80;;;7.10;;
8086;SDS011;4086;54.412;9.980;2023-04-24T04:32:11;7.07;;;6.47;;
8086;SDS011;4086;54.412;9.980;2023-04-24T04:34:37;6.93;;;6.33;;
8086;SDS011;4086;54.412;9.980;2023-04-24T04:37:04;6.90;;;6.30;;
8086;SDS011;4086;54.412;9.980;2023-04-24T04:39:31;6.77;;;6.23;;
8086;SDS011;4086;54.412;9.980;2023-04-24T04:41:57;6.27;;;5.73;;
8086;SDS011;4086;54.412;9.980;2023-04-24T04:44:23;6.80;;;6.20;;
8086;SDS011;4086;54.412;9.980;2023-04-24T04:46:50;6.50;;;6.00;;
8086;SDS011;4086;54.412;9.980;2023-04-24T04:49:19;7.07;;;6.47;;
8086;SDS011;4086;54.412;9.980;2023-04-24T04:51:46;6.33;;;5.73;;
8086;SDS011;4086;54.412;9.980;2023-04-24T04:54:13;6.00;;;5.50;;
8086;SDS011;4086;54.412;9.980;2023-04-24T04:56:39;5.30;;;4.90;;
8086;SDS011;4086;54.412;9.980;2023-04-24T04:59:06;5.20;;;4.80;;
8086;SDS011;4086;54.412;9.980;2023-04-24T05:01:32;4.87;;;4.53;;
8086;SDS011;4086;54.412;9.980;2023-04-24T05:03:58;5.20;;;4.80;;
8086;SDS011;4086;54.412;9.980;2023-04-24T05:06:26;4.90;;;4.50;;
8086;SDS011;4086;54.412;9.980;2023-04-24T05:08:53;4.67;;;4.27;;
8086;SDS011;4086;54.412;9.980;2023-04-24T05:11:22;4.17;;;3.87;;
8086;SDS011;4086;54.412;9.980;2023-04-24T05:13:48;4.20;;;3.80;;
8086;SDS011;4086;54.412;9.980;2023-04-24T05:16:14;4.33;;;4.03;;
8086;SDS011;4086;54.412;9.980;2023-04-24T05:18:41;4.50;;;4.20;;
8086;SDS011;4086;54.412;9.980;2023-04-24T05:21:07;4.13;;;3.83;;
8086;SDS011;4086;54.412;9.980;2023-04-24T05:23:35;4.17;;;3.80;;
8086;SDS011;4086;54.412;9.980;2023-04-24T05:26:01;4.70;;;4.10;;
8086;SDS011;4086;54.412;9.980;2023-04-24T05:28:28;4.30;;;4.00;;
8086;SDS011;4086;54.412;9.980;2023-04-24T05:30:55;4.10;;;3.80;;
8086;SDS011;4086;54.412;9.980;2023-04-24T05:33:21;4.33;;;4.03;;
8086;SDS011;4086;54.412;9.980;2023-04-24T05:35:48;4.27;;;3.97;;
8086;SDS011;4086;54.412;9.980;2023-04-24T05:38:14;4.10;;;3.80;;
8086;SDS011;4086;54.412;9.980;2023-04-24T05:40:44;3.87;;;3.57;;
8086;SDS011;4086;54.412;9.980;2023-04-24T05:43:10;4.47;;;4.17;;
8086;SDS011;4086;54.412;9.980;2023-04-24T05:45:36;4.47;;;4.17;;
8086;SDS011;4086;54.412;9.980;2023-04-24T05:48:03;4.67;;;4.37;;
8086;SDS011;4086;54.412;9.980;2023-04-24T05:50:30;4.60;;;4.30;;
8086;SDS011;4086;54.412;9.980;2023-04-24T05:52:57;4.33;;;4.03;;
8086;SDS011;4086;54.412;9.980;2023-04-24T05:55:24;4.70;;;4.30;;
8086;SDS011;4086;54.412;9.980;2023-04-24T05:57:51;4.90;;;4.50;;
8086;SDS011;4086;54.412;9.980;2023-04-24T06:00:18;4.20;;;3.90;;
8086;SDS011;4086;54.412;9.980;2023-04-24T06:02:45;4.40;;;3.93;;
8086;SDS011;4086;54.412;9.980;2023-04-24T06:05:12;4.53;;;4.23;;
8086;SDS011;4086;54.412;9.980;2023-04-24T06:07:38;4.07;;;3.77;;
8086;SDS011;4086;54.412;9.980;2023-04-24T06:10:05;3.90;;;3.60;;
8086;SDS011;4086;54.412;9.980;2023-04-24T06:12:32;4.40;;;4.00;;
8086;SDS011;4086;54.412;9.980;2023-04-24T06:15:00;3.73;;;3.50;;
8086;SDS011;4086;54.412;9.980;2023-04-24T06:17:26;3.93;;;3.63;;
8086;SDS011;4086;54.412;9.980;2023-04-24T06:19:52;4.50;;;4.10;;
8086;SDS011;4086;54.412;9.980;2023-04-24T06:22:19;4.07;;;3.77;;
8086;SDS011;4086;54.412;9.980;2023-04-24T06:24:45;4.50;;;4.20;;
8086;SDS011;4086;54.412;9.980;2023-04-24T06:27:13;3.73;;;3.53;;
8086;SDS011;4086;54.412;9.980;2023-04-24T06:29:39;3.77;;;3.53;;
8086;SDS011;4086;54.412;9.980;2023-04-24T06:32:07;4.13;;;3.80;;
8086;SDS011;4086;54.412;9.980;2023-04-24T06:34:34;4.40;;;4.00;;
8086;SDS011;4086;54.412;9.980;2023-04-24T06:37:01;4.10;;;3.70;;
8086;SDS011;4086;54.412;9.980;2023-04-24T06:39:28;4.20;;;3.90;;
8086;SDS011;4086;54.412;9.980;2023-04-24T06:41:54;5.30;;;4.10;;
8086;SDS011;4086;54.412;9.980;2023-04-24T06:44:20;4.20;;;3.77;;
8086;SDS011;4086;54.412;9.980;2023-04-24T06:46:47;3.97;;;3.67;;
8086;SDS011;4086;54.412;9.980;2023-04-24T06:49:15;4.10;;;3.80;;
8086;SDS011;4086;54.412;9.980;2023-04-24T06:51:41;3.70;;;3.50;;
8086;SDS011;4086;54.412;9.980;2023-04-24T06:54:07;4.70;;;4.30;;
8086;SDS011;4086;54.412;9.980;2023-04-24T06:56:34;3.73;;;3.43;;
8086;SDS011;4086;54.412;9.980;2023-04-24T06:59:00;4.07;;;3.77;;
8086;SDS011;4086;54.412;9.980;2023-04-24T07:01:26;4.37;;;4.07;;
8086;SDS011;4086;54.412;9.980;2023-04-24T07:03:53;4.03;;;3.73;;
8086;SDS011;4086;54.412;9.980;2023-04-24T07:06:20;3.60;;;3.40;;
8086;SDS011;4086;54.412;9.980;2023-04-24T07:08:48;4.07;;;3.77;;
8086;SDS011;4086;54.412;9.980;2023-04-24T07:11:15;4.17;;;3.83;;
8086;SDS011;4086;54.412;9.980;2023-04-24T07:13:41;3.50;;;3.30;;
8086;SDS011;4086;54.412;9.980;2023-04-24T07:16:08;4.50;;;4.20;;
8086;SDS011;4086;54.412;9.980;2023-04-24T07:18:35;4.17;;;3.87;;
8086;SDS011;4086;54.412;9.980;2023-04-24T07:21:02;4.37;;;3.90;;
8086;SDS011;4086;54.412;9.980;2023-04-24T07:23:30;5.00;;;4.10;;
8086;SDS011;4086;54.412;9.980;2023-04-24T07:25:56;4.73;;;4.00;;
8086;SDS011;4086;54.412;9.980;2023-04-24T07:28:23;4.13;;;3.83;;
8086;SDS011;4086;54.412;9.980;2023-04-24T07:30:49;4.37;;;3.93;;
8086;SDS011;4086;54.412;9.980;2023-04-24T07:33:18;3.73;;;3.43;;
8086;SDS011;4086;54.412;9.980;2023-04-24T07:35:45;4.20;;;3.90;;
8086;SDS011;4086;54.412;9.980;2023-04-24T07:38:11;4.30;;;4.00;;
8086;SDS011;4086;54.412;9.980;2023-04-24T07:40:39;4.00;;;3.70;;
8086;SDS011;4086;54.412;9.980;2023-04-24T07:43:05;4.10;;;3.80;;
8086;SDS011;4086;54.412;9.980;2023-04-24T07:45:31;4.17;;;3.70;;
8086;SDS011;4086;54.412;9.980;2023-04-24T07:48:01;4.23;;;3.93;;
8086;SDS011;4086;54.412;9.980;2023-04-24T07:50:27;4.00;;;3.70;;
8086;SDS011;4086;54.412;9.980;2023-04-24T07:52:54;4.73;;;3.37;;
8086;SDS011;4086;54.412;9.980;2023-04-24T07:55:20;4.10;;;3.80;;
8086;SDS011;4086;54.412;9.980;2023-04-24T07:57:48;3.83;;;3.53;;
8086;SDS011;4086;54.412;9.980;2023-04-24T08:00:14;4.50;;;4.07;;
8086;SDS011;4086;54.412;9.980;2023-04-24T08:02:41;4.80;;;4.27;;
8086;SDS011;4086;54.412;9.980;2023-04-24T08:05:08;4.73;;;4.30;;
8086;SDS011;4086;54.412;9.980;2023-04-24T08:07:34;4.10;;;3.90;;
8086;SDS011;4086;54.412;9.980;2023-04-24T08:10:01;4.40;;;4.10;;
8086;SDS011;4086;54.412;9.980;2023-04-24T08:12:27;4.20;;;3.80;;
8086;SDS011;4086;54.412;9.980;2023-04-24T08:14:55;4.50;;;4.10;;
8086;SDS011;4086;54.412;9.980;2023-04-24T08:17:21;4.20;;;3.90;;
8086;SDS011;4086;54.412;9.980;2023-04-24T08:19:48;4.13;;;3.83;;
8086;SDS011;4086;54.412;9.980;2023-04-24T08:22:16;4.27;;;3.97;;
8086;SDS011;4086;54.412;9.980;2023-04-24T08:24:42;4.47;;;4.00;;
8086;SDS011;4086;54.412;9.980;2023-04-24T08:27:09;4.17;;;3.87;;
8086;SDS011;4086;54.412;9.980;2023-04-24T08:29:36;4.03;;;3.70;;
8086;SDS011;4086;54.412;9.980;2023-04-24T08:32:04;4.70;;;4.30;;
8086;SDS011;4086;54.412;9.980;2023-04-24T08:34:30;4.30;;;4.00;;
8086;SDS011;4086;54.412;9.980;2023-04-24T08:36:56;4.20;;;3.80;;
8086;SDS011;4086;54.412;9.980;2023-04-24T08:39:23;4.33;;;4.07;;
8086;SDS011;4086;54.412;9.980;2023-04-24T08:41:49;4.70;;;4.30;;
8086;SDS011;4086;54.412;9.980;2023-04-24T08:44:16;4.60;;;4.30;;
8086;SDS011;4086;54.412;9.980;2023-04-24T08:46:43;4.47;;;4.17;;
8086;SDS011;4086;54.412;9.980;2023-04-24T08:49:14;4.70;;;4.30;;
8086;SDS011;4086;54.412;9.980;2023-04-24T08:51:41;5.10;;;4.37;;
8086;SDS011;4086;54.412;9.980;2023-04-24T08:54:08;4.97;;;4.57;;
8086;SDS011;4086;54.412;9.980;2023-04-24T08:56:34;5.10;;;4.70;;
8086;SDS011;4086;54.412;9.980;2023-04-24T08:59:04;4.40;;;4.07;;
8086;SDS011;4086;54.412;9.980;2023-04-24T09:01:31;4.43;;;4.03;;
8086;SDS011;4086;54.412;9.980;2023-04-24T09:03:58;4.80;;;4.40;;
8086;SDS011;4086;54.412;9.980;2023-04-24T09:06:27;4.43;;;4.03;;
8086;SDS011;4086;54.412;9.980;2023-04-24T09:08:55;4.93;;;4.50;;
8086;SDS011;4086;54.412;9.980;2023-04-24T09:11:22;4.70;;;4.30;;
8086;SDS011;4086;54.412;9.980;2023-04-24T09:13:49;4.80;;;4.50;;
8086;SDS011;4086;54.412;9.980;2023-04-24T09:16:15;4.80;;;4.50;;
8086;SDS011;4086;54.412;9.980;2023-04-24T09:18:42;4.70;;;4.40;;
8086;SDS011;4086;54.412;9.980;2023-04-24T09:21:08;5.87;;;4.50;;
8086;SDS011;4086;54.412;9.980;2023-04-24T09:23:37;4.60;;;4.30;;
8086;SDS011;4086;54.412;9.980;2023-04-24T09:26:04;5.50;;;4.97;;
8086;SDS011;4086;54.412;9.980;2023-04-24T09:28:31;4.73;;;4.33;;
8086;SDS011;4086;54.412;9.980;2023-04-24T09:31:02;4.67;;;4.27;;
8086;SDS011;4086;54.412;9.980;2023-04-24T09:33:30;4.73;;;4.33;;
8086;SDS011;4086;54.412;9.980;2023-04-24T09:35:57;5.73;;;4.70;;
8086;SDS011;4086;54.412;9.980;2023-04-24T09:38:30;4.40;;;4.03;;
8086;SDS011;4086;54.412;9.980;2023-04-24T09:41:00;5.17;;;4.63;;
8086;SDS011;4086;54.412;9.980;2023-04-24T09:43:28;4.93;;;4.53;;
8086;SDS011;4086;54.412;9.980;2023-04-24T09:45:55;4.70;;;4.40;;
8086;SDS011;4086;54.412;9.980;2023-04-24T09:48:29;5.00;;;4.60;;
8086;SDS011;4086;54.412;9.980;2023-04-24T09:50:56;4.77;;;4.43;;
8086;SDS011;4086;54.412;9.980;2023-04-24T09:53:23;4.30;;;4.00;;
8086;SDS011;4086;54.412;9.980;2023-04-24T09:55:50;5.07;;;4.67;;
8086;SDS011;4086;54.412;9.980;2023-04-24T09:58:19;5.17;;;4.70;;
8086;SDS011;4086;54.412;9.980;2023-04-24T10:00:50;5.30;;;4.80;;
8086;SDS011;4086;54.412;9.980;2023-04-24T10:03:19;4.73;;;4.27;;
8086;SDS011;4086;54.412;9.980;2023-04-24T10:05:46;5.67;;;5.17;;
8086;SDS011;4086;54.412;9.980;2023-04-24T10:08:13;6.13;;;5.63;;
8086;SDS011;4086;54.412;9.980;2023-04-24T10:10:41;5.50;;;5.10;;
8086;SDS011;4086;54.412;9.980;2023-04-24T10:13:08;5.90;;;5.40;;
8086;SDS011;4086;54.412;9.980;2023-04-24T10:15:37;6.20;;;5.70;;
8086;SDS011;4086;54.412;9.980;2023-04-24T10:18:03;7.00;;;6.40;;
8086;SDS011;4086;54.412;9.980;2023-04-24T10:20:31;7.63;;;7.03;;
8086;SDS011;4086;54.412;9.980;2023-04-24T10:22:59;7.87;;;7.27;;
8086;SDS011;4086;54.412;9.980;2023-04-24T10:25:26;7.93;;;7.23;;
8086;SDS011;4086;54.412;9.980;2023-04-24T10:27:55;8.60;;;7.80;;
8086;SDS011;4086;54.412;9.980;2023-04-24T10:30:24;7.23;;;6.63;;
8086;SDS011;4086;54.412;9.980;2023-04-24T10:32:53;7.37;;;6.67;;
8086;SDS011;4086;54.412;9.980;2023-04-24T10:35:19;7.20;;;6.57;;
8086;SDS011;4086;54.412;9.980;2023-04-24T10:37:48;7.40;;;6.37;;
8086;SDS011;4086;54.412;9.980;2023-04-24T10:40:17;7.53;;;6.93;;
8086;SDS011;4086;54.412;9.980;2023-04-24T10:42:46;7.03;;;6.53;;
8086;SDS011;4086;54.412;9.980;2023-04-24T10:45:16;7.47;;;6.77;;
8086;SDS011;4086;54.412;9.980;2023-04-24T10:47:50;7.37;;;6.67;;
8086;SDS011;4086;54.412;9.980;2023-04-24T10:50:18;6.83;;;6.23;;
8086;SDS011;4086;54.412;9.980;2023-04-24T10:52:45;6.07;;;5.57;;
8086;SDS011;4086;54.412;9.980;2023-04-24T10:55:12;6.33;;;5.83;;
8086;SDS011;4086;54.412;9.980;2023-04-24T10:57:38;6.43;;;5.83;;
8086;SDS011;4086;54.412;9.980;2023-04-24T11:02:57;6.10;;;5.60;;
8086;SDS011;4086;54.412;9.980;2023-04-24T11:05:49;5.97;;;5.47;;
8086;SDS011;4086;54.412;9.980;2023-04-24T11:08:21;6.27;;;5.77;;
8086;SDS011;4086;54.412;9.980;2023-04-24T11:10:54;6.10;;;5.60;;
8086;SDS011;4086;54.412;9.980;2023-04-24T11:13:22;8.10;;;7.40;;
8086;SDS011;4086;54.412;9.980;2023-04-24T11:18:42;7.47;;;6.87;;
8086;SDS011;4086;54.412;9.980;2023-04-24T11:21:11;7.07;;;6.47;;
8086;SDS011;4086;54.412;9.980;2023-04-24T11:23:38;7.23;;;6.63;;
8086;SDS011;4086;54.412;9.980;2023-04-24T11:26:10;6.17;;;5.67;;
8086;SDS011;4086;54.412;9.980;2023-04-24T11:28:42;7.30;;;6.60;;
8086;SDS011;4086;54.412;9.980;2023-04-24T11:34:10;7.53;;;6.93;;
8086;SDS011;4086;54.412;9.980;2023-04-24T11:36:39;7.90;;;7.23;;
8086;SDS011;4086;54.412;9.980;2023-04-24T11:39:06;7.90;;;7.20;;
8086;SDS011;4086;54.412;9.980;2023-04-24T11:41:32;7.63;;;6.93;;
8086;SDS011;4086;54.412;9.980;2023-04-24T11:43:59;7.27;;;6.67;;
8086;SDS011;4086;54.412;9.980;2023-04-24T11:46:27;7.10;;;6.50;;
8086;SDS011;4086;54.412;9.980;2023-04-24T11:48:53;7.07;;;6.40;;
8086;SDS011;4086;54.412;9.980;2023-04-24T11:51:21;6.23;;;5.70;;
8086;SDS011;4086;54.412;9.980;2023-04-24T11:53:48;6.60;;;6.10;;
8086;SDS011;4086;54.412;9.980;2023-04-24T11:56:17;6.83;;;6.23;;
8086;SDS011;4086;54.412;9.980;2023-04-24T11:58:44;7.67;;;6.97;;
8086;SDS011;4086;54.412;9.980;2023-04-24T12:01:11;7.43;;;6.60;;
8086;SDS011;4086;54.412;9.980;2023-04-24T12:03:38;7.57;;;6.80;;
8086;SDS011;4086;54.412;9.980;2023-04-24T12:06:05;7.80;;;7.20;;
8086;SDS011;4086;54.412;9.980;2023-04-24T12:08:34;8.00;;;7.20;;
8086;SDS011;4086;54.412;9.980;2023-04-24T12:11:00;8.23;;;7.43;;
8086;SDS011;4086;54.412;9.980;2023-04-24T12:13:27;8.93;;;8.13;;
8086;SDS011;4086;54.412;9.980;2023-04-24T12:15:54;8.53;;;7.83;;
8086;SDS011;4086;54.412;9.980;2023-04-24T12:18:21;9.67;;;8.10;;
8086;SDS011;4086;54.412;9.980;2023-04-24T12:20:48;8.50;;;7.70;;
8086;SDS011;4086;54.412;9.980;2023-04-24T12:23:15;8.10;;;7.37;;
8086;SDS011;4086;54.412;9.980;2023-04-24T12:25:43;8.50;;;7.70;;
8086;SDS011;4086;54.412;9.980;2023-04-24T12:28:10;8.13;;;7.43;;
8086;SDS011;4086;54.412;9.980;2023-04-24T12:30:39;8.77;;;7.90;;
8086;SDS011;4086;54.412;9.980;2023-04-24T12:33:06;8.97;;;8.07;;
8086;SDS011;4086;54.412;9.980;2023-04-24T12:35:33;8.90;;;8.10;;
8086;SDS011;4086;54.412;9.980;2023-04-24T12:38:05;9.13;;;8.30;;
8086;SDS011;4086;54.412;9.980;2023-04-24T12:40:32;8.63;;;7.83;;
8086;SDS011;4086;54.412;9.980;2023-04-24T12:43:00;9.43;;;8.30;;
8086;SDS011;4086;54.412;9.980;2023-04-24T12:45:26;10.10;;;8.83;;
8086;SDS011;4086;54.412;9.980;2023-04-24T12:47:53;9.37;;;8.47;;
8086;SDS011;4086;54.412;9.980;2023-04-24T12:50:20;9.50;;;8.57;;
8086;SDS011;4086;54.412;9.980;2023-04-24T12:52:46;8.50;;;7.80;;
8086;SDS011;4086;54.412;9.980;2023-04-24T12:55:13;7.73;;;7.03;;
8086;SDS011;4086;54.412;9.980;2023-04-24T12:57:39;7.87;;;7.10;;
8086;SDS011;4086;54.412;9.980;2023-04-24T13:00:08;7.57;;;6.80;;
8086;SDS011;4086;54.412;9.980;2023-04-24T13:02:35;7.60;;;7.00;;
8086;SDS011;4086;54.412;9.980;2023-04-24T13:05:01;7.50;;;6.87;;
8086;SDS011;4086;54.412;9.980;2023-04-24T13:07:28;7.93;;;7.33;;
8086;SDS011;4086;54.412;9.980;2023-04-24T13:09:55;7.93;;;7.33;;
8086;SDS011;4086;54.412;9.980;2023-04-24T13:12:21;7.60;;;7.00;;
8086;SDS011;4086;54.412;9.980;2023-04-24T13:14:49;8.67;;;7.97;;
8086;SDS011;4086;54.412;9.980;2023-04-24T13:17:16;9.20;;;8.40;;
8086;SDS011;4086;54.412;9.980;2023-04-24T13:19:43;9.57;;;8.67;;
8086;SDS011;4086;54.412;9.980;2023-04-24T13:22:10;11.07;;;9.10;;
8086;SDS011;4086;54.412;9.980;2023-04-24T13:24:37;10.10;;;9.17;;
8086;SDS011;4086;54.412;9.980;2023-04-24T13:27:05;10.70;;;9.80;;
8086;SDS011;4086;54.412;9.980;2023-04-24T13:29:32;10.20;;;9.20;;
8086;SDS011;4086;54.412;9.980;2023-04-24T13:31:58;10.97;;;10.07;;
8086;SDS011;4086;54.412;9.980;2023-04-24T13:34:27;11.63;;;10.53;;
8086;SDS011;4086;54.412;9.980;2023-04-24T13:36:54;13.50;;;12.30;;
8086;SDS011;4086;54.412;9.980;2023-04-24T13:39:22;15.03;;;13.53;;
8086;SDS011;4086;54.412;9.980;2023-04-24T13:41:49;15.27;;;13.87;;
8086;SDS011;4086;54.412;9.980;2023-04-24T13:44:16;16.97;;;15.00;;
8086;SDS011;4086;54.412;9.980;2023-04-24T13:46:43;16.87;;;15.13;;
8086;SDS011;4086;54.412;9.980;2023-04-24T13:49:10;17.67;;;15.73;;
8086;SDS011;4086;54.412;9.980;2023-04-24T13:51:38;17.17;;;15.43;;
8086;SDS011;4086;54.412;9.980;2023-04-24T13:54:05;18.67;;;16.50;;
8086;SDS011;4086;54.412;9.980;2023-04-24T13:56:31;17.97;;;16.07;;
8086;SDS011;4086;54.412;9.980;2023-04-24T13:58:57;18.50;;;16.60;;
8086;SDS011;4086;54.412;9.980;2023-04-24T14:01:24;17.40;;;15.70;;
8086;SDS011;4086;54.412;9.980;2023-04-24T14:03:50;19.07;;;16.90;;
8086;SDS011;4086;54.412;9.980;2023-04-24T14:06:17;18.67;;;16.57;;
8086;SDS011;4086;54.412;9.980;2023-04-24T14:08:45;19.13;;;16.23;;
8086;SDS011;4086;54.412;9.980;2023-04-24T14:11:11;18.40;;;15.93;;
8086;SDS011;4086;54.412;9.980;2023-04-24T14:13:38;17.70;;;15.90;;
8086;SDS011;4086;54.412;9.980;2023-04-24T14:16:05;17.90;;;15.93;;
8086;SDS011;4086;54.412;9.980;2023-04-24T14:18:31;17.53;;;15.83;;
8086;SDS011;4086;54.412;9.980;2023-04-24T14:20:58;17.23;;;15.37;;
8086;SDS011;4086;54.412;9.980;2023-04-24T14:23:26;17.03;;;15.33;;
8086;SDS011;4086;54.412;9.980;2023-04-24T14:25:53;17.80;;;16.00;;
8086;SDS011;4086;54.412;9.980;2023-04-24T14:28:20;18.00;;;16.17;;
8086;SDS011;4086;54.412;9.980;2023-04-24T14:30:46;17.53;;;15.73;;
8086;SDS011;4086;54.412;9.980;2023-04-24T14:33:13;17.30;;;15.50;;
8086;SDS011;4086;54.412;9.980;2023-04-24T14:35:41;18.07;;;16.27;;
8086;SDS011;4086;54.412;9.980;2023-04-24T14:38:08;19.60;;;16.67;;
8086;SDS011;4086;54.412;9.980;2023-04-24T14:40:35;18.17;;;16.17;;
8086;SDS011;4086;54.412;9.980;2023-04-24T14:43:03;18.40;;;16.57;;
8086;SDS011;4086;54.412;9.980;2023-04-24T14:45:29;17.30;;;15.63;;
8086;SDS011;4086;54.412;9.980;2023-04-24T14:47:56;16.20;;;14.50;;
8086;SDS011;4086;54.412;9.980;2023-04-24T14:50:22;14.67;;;13.23;;
8086;SDS011;4086;54.412;9.980;2023-04-24T14:52:52;11.57;;;10.37;;
8086;SDS011;4086;54.412;9.980;2023-04-24T14:55:19;10.43;;;9.33;;
8086;SDS011;4086;54.412;9.980;2023-04-24T14:57:45;9.57;;;8.70;;
8086;SDS011;4086;54.412;9.980;2023-04-24T15:00:14;9.13;;;8.33;;
8086;SDS011;4086;54.412;9.980;2023-04-24T15:02:42;8.87;;;8.07;;
8086;SDS011;4086;54.412;9.980;2023-04-24T15:05:09;8.93;;;8.13;;
8086;SDS011;4086;54.412;9.980;2023-04-24T15:07:36;8.37;;;7.60;;
8086;SDS011;4086;54.412;9.980;2023-04-24T15:10:03;7.83;;;7.13;;
8086;SDS011;4086;54.412;9.980;2023-04-24T15:12:30;7.50;;;6.80;;
8086;SDS011;4086;54.412;9.980;2023-04-24T15:14:57;7.30;;;6.70;;